This is the latest recevied weather packets stored in our database for station/object N9DMT-13. If no packets are shown the sender has not sent any weather packets the latest 10 day(s).
| Time | Temp. | Humidity | Pressure | Rain* | Wind** | Luminosity | Snow |
|---|---|---|---|---|---|---|---|
| 1778088107 | 10° C | 43% | 983.5 hPa | 0 mm | - | - | - |
| 1778087806 | 9.44° C | 47% | 983.3 hPa | 0 mm | - | - | - |
| 1778087505 | 10° C | 45% | 983.3 hPa | 0 mm | - | - | - |
| 1778087204 | 10.56° C | 43% | 983.5 hPa | 0 mm | - | - | - |
| 1778086903 | 8.89° C | 46% | 983.4 hPa | 0 mm | - | - | - |
| 1778086602 | 9.44° C | 44% | 983.5 hPa | 0 mm | - | - | - |
| 1778086302 | 10° C | 43% | 983.5 hPa | 0 mm | - | - | - |
| 1778086001 | 10° C | 46% | 983.3 hPa | 0 mm | - | - | - |
| 1778085700 | 10.56° C | 41% | 983.4 hPa | 0 mm | - | - | - |
| 1778085400 | 10° C | 43% | 983.4 hPa | 0 mm | - | - | - |
| 1778085099 | 10° C | 45% | 983.3 hPa | 0 mm | - | - | - |
| 1778084798 | 8.89° C | 46% | 983.4 hPa | 0 mm | - | - | - |
| 1778084497 | 9.44° C | 46% | 983.2 hPa | 0 mm | - | - | - |
| 1778084196 | 9.44° C | 45% | 983.1 hPa | 0 mm | - | - | - |
| 1778083896 | 8.89° C | 48% | 983.3 hPa | 0 mm | - | - | - |
| 1778083595 | 10° C | 43% | 983.3 hPa | 0 mm | - | - | - |
| 1778083294 | 9.44° C | 50% | 983.1 hPa | 0 mm | - | - | - |
| 1778082993 | 8.89° C | 46% | 983.3 hPa | 0 mm | - | - | - |
| 1778082692 | 8.89° C | 46% | 983.3 hPa | 0 mm | - | - | - |
| 1778082391 | 10° C | 45% | 983.4 hPa | 0 mm | - | - | - |
| 1778082090 | 9.44° C | 47% | 983.2 hPa | 0 mm | - | - | - |
| 1778081789 | 9.44° C | 46% | 983.3 hPa | 0 mm | - | - | - |
| 1778081488 | 8.89° C | 49% | 983.3 hPa | 0 mm | - | - | - |
| 1778081187 | 8.33° C | 49% | 983.2 hPa | 0 mm | - | - | - |
| 1778080886 | 7.78° C | 49% | 983.1 hPa | 0 mm | - | - | - |
* Rain latest hour (hover to see other rain measurements)
** Current wind speed in m/s (hover to see current wind gust speed)